Aviation Digital Data Service (ADDS)

Output produced by METARs form (0308 UTC 18 August 2017)
found at http://www.aviationweather.gov/adds/metars/
 
MRLB 180300Z 09010KT CAVOK 27/20 A2985 NOSIG
MRLB 172300Z 1800/1824 11012KT 9999 FEW040 TX32/1819Z TN22/1811Z 
     BECMG 1821/1823 00000KT SCT030
       
MRPV 180000Z 08011KT 9999 FEW035 SCT160 BKN200 22/14 A3000 NOSIG
MRPV 172300Z 1800/1824 08012KT 9999 FEW035 TX28/1818Z TN18/1810Z 
     BECMG 1818/1820 23007KT 
     TEMPO 1820/1824 5000 -TSRA SCT015CB BKN025
       
MRLM 180000Z 00000KT CAVOK 26/25 A2984
MRLM 172300Z 1800/1824 28005KT 9999 SCT025 TX30/1819Z TN23/1811Z 
     TEMPO 1806/1811 5000 RA BKN020 
     BECMG 1816/1818 03006KT 
     PROB30 1820/1823 RA BKN020
       
MROC 180300Z 10007KT CAVOK 23/14 A2998 NOSIG
MROC 172300Z 1800/1824 10012KT 9999 FEW035 TX28/1818Z TN19/1810Z 
     BECMG 1817/1819 24007KT 
     TEMPO 1820/1824 5000 TSRA SCT015CB BKN025